sensor_id;sensor_type;location;lat;lon;timestamp;P1;durP1;ratioP1;P2;durP2;ratioP2
65071;SDS011;51663;52.310;17.016;2023-05-07T00:00:58;5.57;;;5.07;;
65071;SDS011;51663;52.310;17.016;2023-05-07T00:04:05;5.83;;;5.33;;
65071;SDS011;51663;52.310;17.016;2023-05-07T00:12:12;5.30;;;4.70;;
65071;SDS011;51663;52.310;17.016;2023-05-07T00:20:51;6.87;;;5.70;;
65071;SDS011;51663;52.310;17.016;2023-05-07T00:24:21;6.90;;;5.20;;
65071;SDS011;51663;52.310;17.016;2023-05-07T00:30:52;7.77;;;5.20;;
65071;SDS011;51663;52.310;17.016;2023-05-07T00:42:30;5.93;;;5.00;;
65071;SDS011;51663;52.310;17.016;2023-05-07T00:50:18;5.37;;;4.97;;
65071;SDS011;51663;52.310;17.016;2023-05-07T00:54:32;6.23;;;4.40;;
65071;SDS011;51663;52.310;17.016;2023-05-07T01:01:37;4.80;;;4.30;;
65071;SDS011;51663;52.310;17.016;2023-05-07T01:09:06;5.17;;;4.33;;
65071;SDS011;51663;52.310;17.016;2023-05-07T01:12:09;6.40;;;4.50;;
65071;SDS011;51663;52.310;17.016;2023-05-07T01:15:29;5.37;;;4.13;;
65071;SDS011;51663;52.310;17.016;2023-05-07T01:18:34;6.90;;;4.77;;
65071;SDS011;51663;52.310;17.016;2023-05-07T01:26:28;6.13;;;4.20;;
65071;SDS011;51663;52.310;17.016;2023-05-07T01:39:03;5.43;;;4.00;;
65071;SDS011;51663;52.310;17.016;2023-05-07T01:47:54;5.37;;;4.83;;
65071;SDS011;51663;52.310;17.016;2023-05-07T02:04:10;5.13;;;4.63;;
65071;SDS011;51663;52.310;17.016;2023-05-07T02:08:06;7.63;;;4.60;;
65071;SDS011;51663;52.310;17.016;2023-05-07T02:15:58;6.47;;;5.17;;
65071;SDS011;51663;52.310;17.016;2023-05-07T02:23:55;5.03;;;4.57;;
65071;SDS011;51663;52.310;17.016;2023-05-07T02:27:04;5.40;;;4.90;;
65071;SDS011;51663;52.310;17.016;2023-05-07T02:39:56;6.77;;;6.00;;
65071;SDS011;51663;52.310;17.016;2023-05-07T02:43:47;9.23;;;7.00;;
65071;SDS011;51663;52.310;17.016;2023-05-07T02:56:02;8.90;;;7.50;;
65071;SDS011;51663;52.310;17.016;2023-05-07T02:59:13;9.17;;;7.47;;
65071;SDS011;51663;52.310;17.016;2023-05-07T03:12:24;10.07;;;7.93;;
65071;SDS011;51663;52.310;17.016;2023-05-07T03:21:02;10.27;;;7.80;;
65071;SDS011;51663;52.310;17.016;2023-05-07T03:29:51;9.30;;;7.43;;
65071;SDS011;51663;52.310;17.016;2023-05-07T03:46:56;8.87;;;7.90;;
65071;SDS011;51663;52.310;17.016;2023-05-07T03:50:14;9.53;;;7.60;;
65071;SDS011;51663;52.310;17.016;2023-05-07T03:54:09;9.37;;;8.07;;
65071;SDS011;51663;52.310;17.016;2023-05-07T04:11:25;11.93;;;7.60;;
65071;SDS011;51663;52.310;17.016;2023-05-07T04:19:19;7.40;;;6.60;;
65071;SDS011;51663;52.310;17.016;2023-05-07T04:23:56;7.83;;;6.10;;
65071;SDS011;51663;52.310;17.016;2023-05-07T04:32:57;6.50;;;5.57;;
65071;SDS011;51663;52.310;17.016;2023-05-07T04:36:33;5.67;;;5.10;;
65071;SDS011;51663;52.310;17.016;2023-05-07T04:44:29;5.80;;;5.20;;
65071;SDS011;51663;52.310;17.016;2023-05-07T04:51:51;6.97;;;4.90;;
65071;SDS011;51663;52.310;17.016;2023-05-07T04:55:01;6.47;;;5.07;;
65071;SDS011;51663;52.310;17.016;2023-05-07T05:07:12;7.05;;;5.05;;
65071;SDS011;51663;52.310;17.016;2023-05-07T05:14:46;4.68;;;4.28;;
65071;SDS011;51663;52.310;17.016;2023-05-07T05:18:55;6.20;;;4.55;;
65071;SDS011;51663;52.310;17.016;2023-05-07T05:31:45;4.93;;;4.53;;
65071;SDS011;51663;52.310;17.016;2023-05-07T05:35:49;6.15;;;3.53;;
65071;SDS011;51663;52.310;17.016;2023-05-07T05:38:56;4.45;;;4.05;;
65071;SDS011;51663;52.310;17.016;2023-05-07T05:42:24;5.90;;;4.63;;
65071;SDS011;51663;52.310;17.016;2023-05-07T05:45:41;4.10;;;3.75;;
65071;SDS011;51663;52.310;17.016;2023-05-07T05:54:10;4.82;;;3.88;;
65071;SDS011;51663;52.310;17.016;2023-05-07T06:01:23;3.53;;;3.25;;
65071;SDS011;51663;52.310;17.016;2023-05-07T06:13:30;2.95;;;2.70;;
65071;SDS011;51663;52.310;17.016;2023-05-07T06:21:44;2.20;;;2.00;;
65071;SDS011;51663;52.310;17.016;2023-05-07T06:39:24;3.20;;;1.83;;
65071;SDS011;51663;52.310;17.016;2023-05-07T06:56:52;3.25;;;1.70;;
65071;SDS011;51663;52.310;17.016;2023-05-07T07:08:00;2.72;;;1.60;;
65071;SDS011;51663;52.310;17.016;2023-05-07T07:12:04;1.95;;;1.67;;
65071;SDS011;51663;52.310;17.016;2023-05-07T07:15:06;1.98;;;1.70;;
65071;SDS011;51663;52.310;17.016;2023-05-07T07:18:09;1.92;;;1.50;;
65071;SDS011;51663;52.310;17.016;2023-05-07T07:26:06;1.60;;;1.50;;
65071;SDS011;51663;52.310;17.016;2023-05-07T07:34:49;2.25;;;1.50;;
65071;SDS011;51663;52.310;17.016;2023-05-07T07:38:01;2.75;;;1.83;;
65071;SDS011;51663;52.310;17.016;2023-05-07T07:41:03;1.95;;;1.60;;
65071;SDS011;51663;52.310;17.016;2023-05-07T07:58:17;2.08;;;1.80;;
65071;SDS011;51663;52.310;17.016;2023-05-07T08:01:47;3.08;;;1.50;;
65071;SDS011;51663;52.310;17.016;2023-05-07T08:10:19;1.65;;;1.52;;
65071;SDS011;51663;52.310;17.016;2023-05-07T08:13:23;2.33;;;1.70;;
65071;SDS011;51663;52.310;17.016;2023-05-07T08:16:31;2.17;;;1.60;;
65071;SDS011;51663;52.310;17.016;2023-05-07T08:19:42;2.72;;;1.67;;
65071;SDS011;51663;52.310;17.016;2023-05-07T08:22:51;2.17;;;1.98;;
65071;SDS011;51663;52.310;17.016;2023-05-07T08:30:18;1.63;;;1.52;;
65071;SDS011;51663;52.310;17.016;2023-05-07T08:38:28;3.05;;;1.90;;
65071;SDS011;51663;52.310;17.016;2023-05-07T08:41:39;2.47;;;1.88;;
65071;SDS011;51663;52.310;17.016;2023-05-07T08:50:15;3.88;;;1.35;;
65071;SDS011;51663;52.310;17.016;2023-05-07T08:54:08;2.33;;;1.70;;
65071;SDS011;51663;52.310;17.016;2023-05-07T09:05:35;3.30;;;1.90;;
65071;SDS011;51663;52.310;17.016;2023-05-07T09:08:39;2.10;;;1.90;;
65071;SDS011;51663;52.310;17.016;2023-05-07T09:17:05;1.90;;;1.80;;
65071;SDS011;51663;52.310;17.016;2023-05-07T09:20:07;2.40;;;2.08;;
65071;SDS011;51663;52.310;17.016;2023-05-07T09:23:14;2.40;;;2.03;;
65071;SDS011;51663;52.310;17.016;2023-05-07T09:26:17;2.65;;;1.70;;
65071;SDS011;51663;52.310;17.016;2023-05-07T09:29:19;1.75;;;1.50;;
65071;SDS011;51663;52.310;17.016;2023-05-07T09:32:21;3.47;;;1.60;;
65071;SDS011;51663;52.310;17.016;2023-05-07T09:35:27;2.10;;;1.63;;
65071;SDS011;51663;52.310;17.016;2023-05-07T09:38:37;1.65;;;1.55;;
65071;SDS011;51663;52.310;17.016;2023-05-07T09:41:43;2.40;;;1.42;;
65071;SDS011;51663;52.310;17.016;2023-05-07T09:44:46;2.13;;;1.85;;
65071;SDS011;51663;52.310;17.016;2023-05-07T09:47:49;1.80;;;1.65;;
65071;SDS011;51663;52.310;17.016;2023-05-07T09:50:56;1.90;;;1.65;;
65071;SDS011;51663;52.310;17.016;2023-05-07T09:54:16;1.50;;;1.38;;
65071;SDS011;51663;52.310;17.016;2023-05-07T09:57:19;1.50;;;1.40;;
65071;SDS011;51663;52.310;17.016;2023-05-07T10:00:22;1.58;;;1.45;;
65071;SDS011;51663;52.310;17.016;2023-05-07T10:07:00;2.05;;;1.90;;
65071;SDS011;51663;52.310;17.016;2023-05-07T10:10:36;1.70;;;1.60;;
65071;SDS011;51663;52.310;17.016;2023-05-07T10:13:45;1.67;;;1.58;;
65071;SDS011;51663;52.310;17.016;2023-05-07T10:17:58;1.63;;;1.52;;
65071;SDS011;51663;52.310;17.016;2023-05-07T10:25:31;1.70;;;1.60;;
65071;SDS011;51663;52.310;17.016;2023-05-07T10:32:45;2.47;;;1.77;;
65071;SDS011;51663;52.310;17.016;2023-05-07T10:36:09;1.75;;;1.42;;
65071;SDS011;51663;52.310;17.016;2023-05-07T10:47:21;1.73;;;1.38;;
65071;SDS011;51663;52.310;17.016;2023-05-07T10:54:24;1.75;;;1.35;;
65071;SDS011;51663;52.310;17.016;2023-05-07T10:57:32;1.20;;;1.10;;
65071;SDS011;51663;52.310;17.016;2023-05-07T11:07:28;1.58;;;1.45;;
65071;SDS011;51663;52.310;17.016;2023-05-07T11:10:53;2.25;;;1.35;;
65071;SDS011;51663;52.310;17.016;2023-05-07T11:14:02;1.52;;;1.40;;
65071;SDS011;51663;52.310;17.016;2023-05-07T11:17:09;1.73;;;1.40;;
65071;SDS011;51663;52.310;17.016;2023-05-07T11:24:16;1.30;;;1.20;;
65071;SDS011;51663;52.310;17.016;2023-05-07T11:27:32;2.00;;;1.20;;
65071;SDS011;51663;52.310;17.016;2023-05-07T11:30:42;1.58;;;1.20;;
65071;SDS011;51663;52.310;17.016;2023-05-07T11:34:28;3.58;;;2.00;;
65071;SDS011;51663;52.310;17.016;2023-05-07T11:46:14;1.80;;;1.70;;
65071;SDS011;51663;52.310;17.016;2023-05-07T11:49:25;1.48;;;1.38;;
65071;SDS011;51663;52.310;17.016;2023-05-07T11:52:29;1.60;;;1.17;;
65071;SDS011;51663;52.310;17.016;2023-05-07T11:55:33;1.50;;;1.40;;
65071;SDS011;51663;52.310;17.016;2023-05-07T11:58:47;1.52;;;1.42;;
65071;SDS011;51663;52.310;17.016;2023-05-07T12:01:50;2.00;;;1.60;;
65071;SDS011;51663;52.310;17.016;2023-05-07T12:05:18;2.53;;;1.50;;
65071;SDS011;51663;52.310;17.016;2023-05-07T12:08:21;1.50;;;1.40;;
65071;SDS011;51663;52.310;17.016;2023-05-07T12:11:25;1.75;;;1.58;;
65071;SDS011;51663;52.310;17.016;2023-05-07T12:14:28;5.97;;;1.65;;
65071;SDS011;51663;52.310;17.016;2023-05-07T12:17:32;3.97;;;1.20;;
65071;SDS011;51663;52.310;17.016;2023-05-07T12:20:35;2.67;;;1.60;;
65071;SDS011;51663;52.310;17.016;2023-05-07T12:23:38;2.17;;;1.73;;
65071;SDS011;51663;52.310;17.016;2023-05-07T12:26:41;2.08;;;1.88;;
65071;SDS011;51663;52.310;17.016;2023-05-07T12:33:16;2.15;;;1.58;;
65071;SDS011;51663;52.310;17.016;2023-05-07T12:36:20;1.67;;;1.38;;
65071;SDS011;51663;52.310;17.016;2023-05-07T12:39:22;1.92;;;1.65;;
65071;SDS011;51663;52.310;17.016;2023-05-07T12:42:25;2.00;;;1.90;;
65071;SDS011;51663;52.310;17.016;2023-05-07T12:45:30;2.38;;;1.77;;
65071;SDS011;51663;52.310;17.016;2023-05-07T12:48:45;2.08;;;1.85;;
65071;SDS011;51663;52.310;17.016;2023-05-07T12:52:22;2.90;;;1.88;;
65071;SDS011;51663;52.310;17.016;2023-05-07T12:55:41;11.38;;;2.22;;
65071;SDS011;51663;52.310;17.016;2023-05-07T12:58:59;2.67;;;2.00;;
65071;SDS011;51663;52.310;17.016;2023-05-07T13:02:01;3.40;;;2.15;;
65071;SDS011;51663;52.310;17.016;2023-05-07T13:05:04;2.38;;;2.17;;
65071;SDS011;51663;52.310;17.016;2023-05-07T13:08:08;3.60;;;2.17;;
65071;SDS011;51663;52.310;17.016;2023-05-07T13:11:11;2.30;;;1.90;;
65071;SDS011;51663;52.310;17.016;2023-05-07T13:14:16;4.45;;;2.10;;
65071;SDS011;51663;52.310;17.016;2023-05-07T13:17:23;2.53;;;1.90;;
65071;SDS011;51663;52.310;17.016;2023-05-07T13:20:55;2.33;;;1.88;;
65071;SDS011;51663;52.310;17.016;2023-05-07T13:24:02;2.55;;;2.35;;
65071;SDS011;51663;52.310;17.016;2023-05-07T13:27:04;3.05;;;1.90;;
65071;SDS011;51663;52.310;17.016;2023-05-07T13:30:07;3.50;;;2.03;;
65071;SDS011;51663;52.310;17.016;2023-05-07T13:33:09;2.25;;;1.90;;
65071;SDS011;51663;52.310;17.016;2023-05-07T13:36:12;2.55;;;1.83;;
65071;SDS011;51663;52.310;17.016;2023-05-07T13:39:18;4.82;;;2.05;;
65071;SDS011;51663;52.310;17.016;2023-05-07T13:42:20;1.88;;;1.77;;
65071;SDS011;51663;52.310;17.016;2023-05-07T13:45:32;2.15;;;2.00;;
65071;SDS011;51663;52.310;17.016;2023-05-07T13:49:15;4.78;;;2.05;;
65071;SDS011;51663;52.310;17.016;2023-05-07T13:52:37;2.67;;;2.22;;
65071;SDS011;51663;52.310;17.016;2023-05-07T13:55:42;2.40;;;2.20;;
65071;SDS011;51663;52.310;17.016;2023-05-07T13:58:44;3.40;;;2.03;;
65071;SDS011;51663;52.310;17.016;2023-05-07T14:02:01;3.10;;;1.77;;
65071;SDS011;51663;52.310;17.016;2023-05-07T14:05:15;3.38;;;2.00;;
65071;SDS011;51663;52.310;17.016;2023-05-07T14:08:26;2.33;;;2.08;;
65071;SDS011;51663;52.310;17.016;2023-05-07T14:11:34;3.55;;;2.28;;
65071;SDS011;51663;52.310;17.016;2023-05-07T14:14:37;2.13;;;1.92;;
65071;SDS011;51663;52.310;17.016;2023-05-07T14:17:39;1.73;;;1.63;;
65071;SDS011;51663;52.310;17.016;2023-05-07T14:20:50;2.10;;;2.00;;
65071;SDS011;51663;52.310;17.016;2023-05-07T14:23:54;2.80;;;2.30;;
65071;SDS011;51663;52.310;17.016;2023-05-07T14:26:58;1.98;;;1.75;;
65071;SDS011;51663;52.310;17.016;2023-05-07T14:30:01;2.30;;;2.05;;
65071;SDS011;51663;52.310;17.016;2023-05-07T14:33:06;2.45;;;2.03;;
65071;SDS011;51663;52.310;17.016;2023-05-07T14:36:08;4.70;;;2.42;;
65071;SDS011;51663;52.310;17.016;2023-05-07T14:39:13;3.40;;;2.47;;
65071;SDS011;51663;52.310;17.016;2023-05-07T14:46:07;3.35;;;2.22;;
65071;SDS011;51663;52.310;17.016;2023-05-07T14:49:09;2.20;;;2.00;;
65071;SDS011;51663;52.310;17.016;2023-05-07T14:52:34;3.78;;;2.25;;
65071;SDS011;51663;52.310;17.016;2023-05-07T14:55:47;4.00;;;2.45;;
65071;SDS011;51663;52.310;17.016;2023-05-07T14:58:49;2.53;;;2.25;;
65071;SDS011;51663;52.310;17.016;2023-05-07T15:02:01;2.17;;;1.98;;
65071;SDS011;51663;52.310;17.016;2023-05-07T15:05:37;3.17;;;2.88;;
65071;SDS011;51663;52.310;17.016;2023-05-07T15:08:55;2.78;;;2.10;;
65071;SDS011;51663;52.310;17.016;2023-05-07T15:12:12;2.92;;;2.10;;
65071;SDS011;51663;52.310;17.016;2023-05-07T15:15:15;2.20;;;2.00;;
65071;SDS011;51663;52.310;17.016;2023-05-07T15:18:17;2.22;;;2.03;;
65071;SDS011;51663;52.310;17.016;2023-05-07T15:21:23;3.88;;;1.70;;
65071;SDS011;51663;52.310;17.016;2023-05-07T15:24:26;6.05;;;2.30;;
65071;SDS011;51663;52.310;17.016;2023-05-07T15:27:30;2.80;;;1.85;;
65071;SDS011;51663;52.310;17.016;2023-05-07T15:30:33;2.47;;;1.98;;
65071;SDS011;51663;52.310;17.016;2023-05-07T15:33:53;2.17;;;1.85;;
65071;SDS011;51663;52.310;17.016;2023-05-07T15:37:09;2.90;;;1.67;;
65071;SDS011;51663;52.310;17.016;2023-05-07T15:40:49;2.92;;;2.55;;
65071;SDS011;51663;52.310;17.016;2023-05-07T15:44:49;2.47;;;2.15;;
65071;SDS011;51663;52.310;17.016;2023-05-07T15:51:38;3.08;;;2.10;;
65071;SDS011;51663;52.310;17.016;2023-05-07T15:55:12;3.55;;;2.55;;
65071;SDS011;51663;52.310;17.016;2023-05-07T15:58:35;3.45;;;2.45;;
65071;SDS011;51663;52.310;17.016;2023-05-07T16:01:49;2.90;;;2.50;;
65071;SDS011;51663;52.310;17.016;2023-05-07T16:05:01;3.88;;;2.65;;
65071;SDS011;51663;52.310;17.016;2023-05-07T16:08:15;3.22;;;2.20;;
65071;SDS011;51663;52.310;17.016;2023-05-07T16:11:42;4.15;;;2.42;;
65071;SDS011;51663;52.310;17.016;2023-05-07T16:15:22;3.72;;;2.50;;
65071;SDS011;51663;52.310;17.016;2023-05-07T16:22:09;3.65;;;2.17;;
65071;SDS011;51663;52.310;17.016;2023-05-07T16:25:49;2.72;;;2.10;;
65071;SDS011;51663;52.310;17.016;2023-05-07T16:28:56;4.90;;;2.33;;
65071;SDS011;51663;52.310;17.016;2023-05-07T16:33:01;3.90;;;2.53;;
65071;SDS011;51663;52.310;17.016;2023-05-07T16:37:08;2.75;;;2.42;;
65071;SDS011;51663;52.310;17.016;2023-05-07T16:40:11;2.60;;;2.10;;
65071;SDS011;51663;52.310;17.016;2023-05-07T16:43:14;2.70;;;2.10;;
65071;SDS011;51663;52.310;17.016;2023-05-07T16:46:17;5.65;;;3.15;;
65071;SDS011;51663;52.310;17.016;2023-05-07T16:49:22;2.78;;;2.58;;
65071;SDS011;51663;52.310;17.016;2023-05-07T16:52:25;3.63;;;2.90;;
65071;SDS011;51663;52.310;17.016;2023-05-07T16:55:40;2.80;;;1.73;;
65071;SDS011;51663;52.310;17.016;2023-05-07T16:58:49;2.60;;;2.10;;
65071;SDS011;51663;52.310;17.016;2023-05-07T17:01:55;1.98;;;1.88;;
65071;SDS011;51663;52.310;17.016;2023-05-07T17:05:05;3.00;;;2.30;;
65071;SDS011;51663;52.310;17.016;2023-05-07T17:08:38;2.22;;;1.73;;
65071;SDS011;51663;52.310;17.016;2023-05-07T17:12:08;4.82;;;2.30;;
65071;SDS011;51663;52.310;17.016;2023-05-07T17:15:31;7.05;;;2.33;;
65071;SDS011;51663;52.310;17.016;2023-05-07T17:18:47;3.60;;;2.40;;
65071;SDS011;51663;52.310;17.016;2023-05-07T17:21:52;6.32;;;2.30;;
65071;SDS011;51663;52.310;17.016;2023-05-07T17:24:55;3.50;;;2.80;;
65071;SDS011;51663;52.310;17.016;2023-05-07T17:28:00;7.78;;;2.55;;
65071;SDS011;51663;52.310;17.016;2023-05-07T17:47:18;3.20;;;2.90;;
65071;SDS011;51663;52.310;17.016;2023-05-07T17:51:48;3.45;;;3.15;;
65071;SDS011;51663;52.310;17.016;2023-05-07T17:55:39;3.30;;;3.00;;
65071;SDS011;51663;52.310;17.016;2023-05-07T18:03:55;4.83;;;3.30;;
65071;SDS011;51663;52.310;17.016;2023-05-07T18:07:10;3.53;;;3.23;;
65071;SDS011;51663;52.310;17.016;2023-05-07T18:14:04;17.17;;;5.90;;
65071;SDS011;51663;52.310;17.016;2023-05-07T18:20:34;5.60;;;3.53;;
65071;SDS011;51663;52.310;17.016;2023-05-07T18:23:36;3.70;;;3.40;;
65071;SDS011;51663;52.310;17.016;2023-05-07T18:26:39;4.47;;;3.57;;
65071;SDS011;51663;52.310;17.016;2023-05-07T18:29:44;6.60;;;3.77;;
65071;SDS011;51663;52.310;17.016;2023-05-07T18:32:46;11.57;;;4.50;;
65071;SDS011;51663;52.310;17.016;2023-05-07T18:35:49;9.47;;;4.57;;
65071;SDS011;51663;52.310;17.016;2023-05-07T18:38:51;7.23;;;4.77;;
65071;SDS011;51663;52.310;17.016;2023-05-07T18:41:54;10.67;;;4.47;;
65071;SDS011;51663;52.310;17.016;2023-05-07T18:44:58;12.93;;;4.43;;
65071;SDS011;51663;52.310;17.016;2023-05-07T18:48:00;6.20;;;4.40;;
65071;SDS011;51663;52.310;17.016;2023-05-07T18:51:02;5.20;;;4.23;;
65071;SDS011;51663;52.310;17.016;2023-05-07T18:54:05;7.93;;;4.80;;
65071;SDS011;51663;52.310;17.016;2023-05-07T18:57:08;11.10;;;5.20;;
65071;SDS011;51663;52.310;17.016;2023-05-07T19:00:11;18.47;;;8.27;;
65071;SDS011;51663;52.310;17.016;2023-05-07T19:03:14;22.83;;;11.90;;
65071;SDS011;51663;52.310;17.016;2023-05-07T19:06:18;48.13;;;23.87;;
65071;SDS011;51663;52.310;17.016;2023-05-07T19:09:21;18.77;;;9.93;;
65071;SDS011;51663;52.310;17.016;2023-05-07T19:12:24;12.70;;;6.23;;
65071;SDS011;51663;52.310;17.016;2023-05-07T19:15:26;11.93;;;6.90;;
65071;SDS011;51663;52.310;17.016;2023-05-07T19:18:28;12.00;;;6.60;;
65071;SDS011;51663;52.310;17.016;2023-05-07T19:21:32;32.53;;;16.93;;
65071;SDS011;51663;52.310;17.016;2023-05-07T19:24:34;21.83;;;12.40;;
65071;SDS011;51663;52.310;17.016;2023-05-07T19:27:37;14.77;;;8.23;;
65071;SDS011;51663;52.310;17.016;2023-05-07T19:30:40;14.43;;;7.67;;
65071;SDS011;51663;52.310;17.016;2023-05-07T19:33:43;15.90;;;7.97;;
65071;SDS011;51663;52.310;17.016;2023-05-07T19:36:45;18.20;;;8.60;;
65071;SDS011;51663;52.310;17.016;2023-05-07T19:39:48;15.53;;;8.50;;
65071;SDS011;51663;52.310;17.016;2023-05-07T19:42:50;15.43;;;7.47;;
65071;SDS011;51663;52.310;17.016;2023-05-07T19:45:52;10.50;;;6.50;;
65071;SDS011;51663;52.310;17.016;2023-05-07T19:48:55;15.27;;;8.00;;
65071;SDS011;51663;52.310;17.016;2023-05-07T19:51:57;13.90;;;7.53;;
65071;SDS011;51663;52.310;17.016;2023-05-07T19:55:00;11.30;;;8.00;;
65071;SDS011;51663;52.310;17.016;2023-05-07T19:58:02;15.47;;;9.50;;
65071;SDS011;51663;52.310;17.016;2023-05-07T20:01:04;15.20;;;9.40;;
65071;SDS011;51663;52.310;17.016;2023-05-07T20:04:07;68.90;;;39.63;;
65071;SDS011;51663;52.310;17.016;2023-05-07T20:07:09;31.73;;;17.10;;
65071;SDS011;51663;52.310;17.016;2023-05-07T20:10:12;22.50;;;13.57;;
65071;SDS011;51663;52.310;17.016;2023-05-07T20:13:15;19.97;;;11.20;;
65071;SDS011;51663;52.310;17.016;2023-05-07T20:16:17;20.13;;;9.70;;
65071;SDS011;51663;52.310;17.016;2023-05-07T20:19:20;16.60;;;10.03;;
65071;SDS011;51663;52.310;17.016;2023-05-07T20:22:24;19.27;;;9.63;;
65071;SDS011;51663;52.310;17.016;2023-05-07T20:25:27;16.63;;;9.30;;
65071;SDS011;51663;52.310;17.016;2023-05-07T20:28:34;16.43;;;9.67;;
65071;SDS011;51663;52.310;17.016;2023-05-07T20:31:37;21.50;;;10.07;;
65071;SDS011;51663;52.310;17.016;2023-05-07T20:34:40;21.90;;;10.87;;
65071;SDS011;51663;52.310;17.016;2023-05-07T20:37:42;20.80;;;11.13;;
65071;SDS011;51663;52.310;17.016;2023-05-07T20:40:45;22.53;;;10.40;;
65071;SDS011;51663;52.310;17.016;2023-05-07T20:43:47;24.30;;;10.30;;
65071;SDS011;51663;52.310;17.016;2023-05-07T20:46:49;18.97;;;9.47;;
65071;SDS011;51663;52.310;17.016;2023-05-07T20:49:52;21.50;;;11.23;;
65071;SDS011;51663;52.310;17.016;2023-05-07T20:52:55;28.30;;;14.23;;
65071;SDS011;51663;52.310;17.016;2023-05-07T20:55:57;28.60;;;11.93;;
65071;SDS011;51663;52.310;17.016;2023-05-07T20:59:00;32.17;;;16.07;;
65071;SDS011;51663;52.310;17.016;2023-05-07T21:02:15;31.00;;;15.23;;
65071;SDS011;51663;52.310;17.016;2023-05-07T21:05:34;31.23;;;14.80;;
65071;SDS011;51663;52.310;17.016;2023-05-07T21:08:36;29.13;;;13.33;;
65071;SDS011;51663;52.310;17.016;2023-05-07T21:11:39;28.47;;;13.13;;
65071;SDS011;51663;52.310;17.016;2023-05-07T21:14:41;26.40;;;13.00;;
65071;SDS011;51663;52.310;17.016;2023-05-07T21:17:43;23.40;;;11.30;;
65071;SDS011;51663;52.310;17.016;2023-05-07T21:20:48;22.33;;;11.93;;
65071;SDS011;51663;52.310;17.016;2023-05-07T21:23:50;27.80;;;12.40;;
65071;SDS011;51663;52.310;17.016;2023-05-07T21:26:56;25.03;;;12.73;;
65071;SDS011;51663;52.310;17.016;2023-05-07T21:30:01;26.27;;;12.37;;
65071;SDS011;51663;52.310;17.016;2023-05-07T21:33:09;23.23;;;11.10;;
65071;SDS011;51663;52.310;17.016;2023-05-07T21:36:11;20.40;;;10.47;;
65071;SDS011;51663;52.310;17.016;2023-05-07T21:39:14;18.13;;;10.20;;
65071;SDS011;51663;52.310;17.016;2023-05-07T21:42:16;18.33;;;10.00;;
65071;SDS011;51663;52.310;17.016;2023-05-07T21:45:24;16.73;;;9.83;;
65071;SDS011;51663;52.310;17.016;2023-05-07T21:48:26;19.10;;;10.43;;
65071;SDS011;51663;52.310;17.016;2023-05-07T21:51:29;17.03;;;9.73;;
65071;SDS011;51663;52.310;17.016;2023-05-07T21:54:33;23.53;;;10.43;;
65071;SDS011;51663;52.310;17.016;2023-05-07T21:57:35;22.10;;;10.57;;
65071;SDS011;51663;52.310;17.016;2023-05-07T22:00:38;25.80;;;10.83;;
65071;SDS011;51663;52.310;17.016;2023-05-07T22:03:40;17.27;;;9.97;;
65071;SDS011;51663;52.310;17.016;2023-05-07T22:06:42;20.13;;;10.57;;
65071;SDS011;51663;52.310;17.016;2023-05-07T22:09:44;22.27;;;10.30;;
65071;SDS011;51663;52.310;17.016;2023-05-07T22:12:46;18.23;;;10.27;;
65071;SDS011;51663;52.310;17.016;2023-05-07T22:15:49;19.03;;;9.43;;
65071;SDS011;51663;52.310;17.016;2023-05-07T22:18:58;19.37;;;10.07;;
65071;SDS011;51663;52.310;17.016;2023-05-07T22:22:01;17.57;;;9.37;;
65071;SDS011;51663;52.310;17.016;2023-05-07T22:25:04;21.80;;;10.47;;
65071;SDS011;51663;52.310;17.016;2023-05-07T22:28:06;18.17;;;10.47;;
65071;SDS011;51663;52.310;17.016;2023-05-07T22:31:08;17.53;;;10.10;;
65071;SDS011;51663;52.310;17.016;2023-05-07T22:34:11;14.73;;;9.00;;
65071;SDS011;51663;52.310;17.016;2023-05-07T22:37:13;14.13;;;8.83;;
65071;SDS011;51663;52.310;17.016;2023-05-07T22:40:16;17.20;;;9.47;;
65071;SDS011;51663;52.310;17.016;2023-05-07T22:43:18;18.93;;;9.63;;
65071;SDS011;51663;52.310;17.016;2023-05-07T22:46:21;15.30;;;8.87;;
65071;SDS011;51663;52.310;17.016;2023-05-07T22:49:26;20.53;;;9.20;;
65071;SDS011;51663;52.310;17.016;2023-05-07T22:52:32;17.60;;;8.50;;
65071;SDS011;51663;52.310;17.016;2023-05-07T22:55:36;11.53;;;8.43;;
65071;SDS011;51663;52.310;17.016;2023-05-07T22:58:38;15.80;;;7.87;;
65071;SDS011;51663;52.310;17.016;2023-05-07T23:01:40;9.60;;;7.13;;
65071;SDS011;51663;52.310;17.016;2023-05-07T23:04:42;9.87;;;7.37;;
65071;SDS011;51663;52.310;17.016;2023-05-07T23:07:44;10.87;;;5.97;;
65071;SDS011;51663;52.310;17.016;2023-05-07T23:10:50;8.73;;;6.10;;
65071;SDS011;51663;52.310;17.016;2023-05-07T23:13:52;8.27;;;6.77;;
65071;SDS011;51663;52.310;17.016;2023-05-07T23:16:54;10.13;;;6.10;;
65071;SDS011;51663;52.310;17.016;2023-05-07T23:19:56;8.10;;;6.47;;
65071;SDS011;51663;52.310;17.016;2023-05-07T23:22:59;8.20;;;6.67;;
65071;SDS011;51663;52.310;17.016;2023-05-07T23:26:01;13.40;;;6.80;;
65071;SDS011;51663;52.310;17.016;2023-05-07T23:29:03;11.37;;;7.33;;
65071;SDS011;51663;52.310;17.016;2023-05-07T23:32:05;9.77;;;7.30;;
65071;SDS011;51663;52.310;17.016;2023-05-07T23:35:08;10.33;;;7.10;;
65071;SDS011;51663;52.310;17.016;2023-05-07T23:38:13;9.10;;;7.50;;
65071;SDS011;51663;52.310;17.016;2023-05-07T23:41:15;10.13;;;7.20;;
65071;SDS011;51663;52.310;17.016;2023-05-07T23:44:17;10.23;;;7.20;;
65071;SDS011;51663;52.310;17.016;2023-05-07T23:47:20;11.27;;;7.47;;
65071;SDS011;51663;52.310;17.016;2023-05-07T23:50:22;8.20;;;7.40;;
65071;SDS011;51663;52.310;17.016;2023-05-07T23:53:24;8.13;;;7.30;;
65071;SDS011;51663;52.310;17.016;2023-05-07T23:56:26;10.57;;;8.60;;
65071;SDS011;51663;52.310;17.016;2023-05-07T23:59:28;10.43;;;8.77;;
